Terminal Aerodrome Forecast
Issued by NWS

Home | Current Version | Previous Version | Text Only | Print | Product List | Glossary On
Versions: 1 2 3 4 5 6 7 8 9 10 11 12
000
FTUS44 KJAN 300549 RRA
TAFGTR
TAF
KGTR 300549Z 3006/3106 18011G20KT P6SM BKN250
     FM300800 17011G19KT P6SM BKN015 BKN250
     FM301100 17013G24KT 6SM -SHRA VCTS BKN025CB BKN050
     FM301800 21014G24KT 5SM -TSRA BKN035CB OVC250=

USA.gov is the U.S. government's official web portal to all federal, state and local government web resources and services.